createdAt,value
2023-06-26T00:01:53.568Z,5.70
2023-06-26T00:04:25.635Z,6.60
2023-06-26T00:06:57.781Z,6.10
2023-06-26T00:09:30.047Z,7.20
2023-06-26T00:12:02.221Z,6.90
2023-06-26T00:14:34.323Z,5.80
2023-06-26T00:17:06.653Z,6.50
2023-06-26T00:19:38.718Z,6.70
2023-06-26T00:22:10.920Z,6.10
2023-06-26T00:24:43.039Z,6.70
2023-06-26T00:27:15.324Z,7.10
2023-06-26T00:29:47.442Z,6.60
2023-06-26T00:32:19.518Z,6.00
2023-06-26T00:34:51.654Z,5.60
2023-06-26T00:37:24.319Z,5.40
2023-06-26T00:39:56.400Z,5.30
2023-06-26T00:42:28.989Z,5.20
2023-06-26T00:45:01.027Z,5.00
2023-06-26T00:47:33.845Z,6.10
2023-06-26T00:50:06.883Z,6.20
2023-06-26T00:52:39.788Z,5.30
2023-06-26T00:55:12.953Z,5.20
2023-06-26T00:57:47.073Z,5.30
2023-06-26T01:00:20.484Z,5.50
2023-06-26T01:02:52.976Z,5.60
2023-06-26T01:05:26.148Z,5.90
2023-06-26T01:07:59.394Z,5.50
2023-06-26T01:10:31.624Z,4.70
2023-06-26T01:13:03.757Z,5.10
2023-06-26T01:15:36.160Z,4.60
2023-06-26T01:18:09.269Z,5.00
2023-06-26T01:20:43.853Z,4.10
2023-06-26T01:23:24.646Z,5.20
2023-06-26T01:26:12.745Z,5.20
2023-06-26T01:31:17.638Z,6.00
2023-06-26T01:33:51.964Z,5.70
2023-06-26T01:36:26.066Z,5.70
2023-06-26T01:38:58.247Z,6.40
2023-06-26T01:41:30.465Z,5.90
2023-06-26T01:44:12.037Z,5.70
2023-06-26T01:46:57.442Z,5.90
2023-06-26T01:49:38.455Z,6.60
2023-06-26T01:52:19.238Z,6.60
2023-06-26T01:54:59.175Z,6.80
2023-06-26T01:57:34.325Z,6.80
2023-06-26T02:00:11.369Z,6.20
2023-06-26T02:02:46.457Z,6.20
2023-06-26T02:05:19.702Z,6.00
2023-06-26T02:07:52.480Z,5.90
2023-06-26T02:10:24.679Z,5.30
2023-06-26T02:12:56.826Z,5.20
2023-06-26T02:15:29.130Z,6.50
2023-06-26T02:18:01.368Z,6.20
2023-06-26T02:20:34.568Z,6.30
2023-06-26T02:23:06.758Z,5.90
2023-06-26T02:25:39.457Z,6.80
2023-06-26T02:28:11.855Z,6.50
2023-06-26T02:30:44.145Z,6.40
2023-06-26T02:33:16.805Z,6.10
2023-06-26T02:35:49.029Z,6.00
2023-06-26T02:38:21.575Z,6.50
2023-06-26T02:40:53.970Z,6.40
2023-06-26T02:43:26.629Z,6.60
2023-06-26T02:45:58.769Z,7.30
2023-06-26T02:48:30.922Z,6.40
2023-06-26T02:51:03.050Z,6.40
2023-06-26T02:53:37.432Z,6.50
2023-06-26T02:56:10.914Z,6.50
2023-06-26T02:58:43.165Z,6.40
2023-06-26T03:01:17.817Z,6.80
2023-06-26T03:03:50.748Z,6.20
2023-06-26T03:06:23.350Z,6.50
2023-06-26T03:08:55.950Z,6.60
2023-06-26T03:11:28.088Z,6.50
2023-06-26T03:14:01.158Z,6.80
2023-06-26T03:16:33.678Z,6.50
2023-06-26T03:19:05.828Z,7.00
2023-06-26T03:21:43.665Z,6.40
2023-06-26T03:24:15.792Z,6.70
2023-06-26T03:26:48.034Z,6.90
2023-06-26T03:29:20.168Z,7.30
2023-06-26T03:31:52.492Z,7.00
2023-06-26T03:34:25.301Z,6.60
2023-06-26T03:36:57.420Z,7.40
2023-06-26T03:39:29.633Z,6.70
2023-06-26T03:42:02.855Z,7.30
2023-06-26T03:44:35.192Z,7.60
2023-06-26T03:47:07.730Z,7.30
2023-06-26T03:49:41.448Z,7.50
2023-06-26T03:52:13.545Z,6.90
2023-06-26T03:54:45.818Z,6.90
2023-06-26T03:57:18.062Z,7.50
2023-06-26T03:59:52.984Z,7.30
2023-06-26T04:02:25.322Z,7.60
2023-06-26T04:04:57.577Z,7.10
2023-06-26T04:07:31.272Z,7.50
2023-06-26T04:10:05.129Z,8.10
2023-06-26T04:12:37.411Z,8.70
2023-06-26T04:15:11.480Z,7.90
2023-06-26T04:17:43.558Z,7.70
2023-06-26T04:20:16.474Z,7.70
2023-06-26T04:22:48.660Z,7.60
2023-06-26T04:25:20.921Z,8.30
2023-06-26T04:27:53.038Z,7.70
2023-06-26T04:30:25.220Z,7.70
2023-06-26T04:33:00.262Z,8.60
2023-06-26T04:35:32.428Z,8.50
2023-06-26T04:38:04.660Z,8.90
2023-06-26T04:40:37.016Z,8.30
2023-06-26T04:43:09.496Z,7.90
2023-06-26T04:45:41.907Z,9.00
2023-06-26T04:48:14.072Z,9.10
2023-06-26T04:50:55.158Z,9.10
2023-06-26T04:53:28.026Z,8.10
2023-06-26T04:56:00.299Z,8.30
2023-06-26T04:58:32.521Z,8.70
2023-06-26T05:01:08.191Z,9.40
2023-06-26T05:03:40.534Z,9.60
2023-06-26T05:06:12.881Z,9.50
2023-06-26T05:08:45.008Z,8.50
2023-06-26T05:11:17.227Z,8.40
2023-06-26T05:13:49.311Z,8.80
2023-06-26T05:16:21.554Z,8.00
2023-06-26T05:18:55.519Z,8.80
2023-06-26T05:21:28.058Z,8.60
2023-06-26T05:24:01.190Z,8.80
2023-06-26T05:26:34.523Z,8.60
2023-06-26T05:29:07.598Z,8.20
2023-06-26T05:31:44.010Z,8.10
2023-06-26T05:34:17.636Z,7.90
2023-06-26T05:36:52.807Z,7.80
2023-06-26T05:39:26.101Z,9.30
2023-06-26T05:41:59.358Z,7.70
2023-06-26T05:44:31.445Z,8.70
2023-06-26T05:47:03.653Z,7.40
2023-06-26T05:49:35.894Z,8.30
2023-06-26T05:52:10.228Z,7.30
2023-06-26T05:54:43.322Z,7.30
2023-06-26T05:57:17.706Z,7.40
2023-06-26T05:59:51.204Z,7.30
2023-06-26T06:02:23.673Z,7.50
2023-06-26T06:04:56.006Z,6.80
2023-06-26T06:07:28.318Z,7.20
2023-06-26T06:10:00.983Z,7.50
2023-06-26T06:12:33.177Z,8.00
2023-06-26T06:15:05.336Z,8.00
2023-06-26T06:17:37.670Z,7.70
2023-06-26T06:20:10.876Z,6.80
2023-06-26T06:22:42.955Z,6.90
2023-06-26T06:25:15.236Z,7.70
2023-06-26T06:27:48.577Z,6.90
2023-06-26T06:30:35.171Z,7.80
2023-06-26T06:33:12.926Z,8.20
2023-06-26T06:35:45.683Z,6.80
2023-06-26T06:38:18.163Z,7.30
2023-06-26T06:40:50.525Z,7.70
2023-06-26T06:43:22.716Z,7.50
2023-06-26T06:45:55.196Z,7.20
2023-06-26T06:48:28.353Z,7.10
2023-06-26T06:51:00.565Z,6.70
2023-06-26T06:53:33.203Z,8.00
2023-06-26T06:56:05.734Z,7.00
2023-06-26T06:58:38.017Z,7.40
2023-06-26T07:01:10.614Z,6.60
2023-06-26T07:03:43.077Z,7.10
2023-06-26T07:06:15.779Z,7.20
2023-06-26T07:08:47.851Z,6.50
2023-06-26T07:11:20.223Z,7.20
2023-06-26T07:13:52.910Z,9.40
2023-06-26T07:16:25.029Z,6.70
2023-06-26T07:18:57.173Z,6.70
2023-06-26T07:21:29.234Z,6.10
2023-06-26T07:24:01.300Z,6.50
2023-06-26T07:26:44.405Z,6.20
2023-06-26T07:29:18.068Z,6.10
2023-06-26T07:31:50.395Z,5.80
2023-06-26T07:34:22.610Z,6.30
2023-06-26T07:36:55.284Z,5.90
2023-06-26T07:39:27.451Z,5.70
2023-06-26T07:42:01.021Z,5.90
2023-06-26T07:44:33.128Z,4.60
2023-06-26T07:47:05.688Z,4.80
2023-06-26T07:49:38.016Z,5.00
2023-06-26T07:52:11.750Z,5.10
2023-06-26T07:54:43.845Z,4.60
2023-06-26T07:57:16.264Z,4.80
2023-06-26T07:59:49.102Z,4.90
2023-06-26T08:02:21.230Z,5.30
2023-06-26T08:04:53.658Z,6.10
2023-06-26T08:07:25.945Z,5.10
2023-06-26T08:09:58.417Z,13.30
2023-06-26T08:12:30.601Z,4.40
2023-06-26T08:15:04.164Z,4.60
2023-06-26T08:17:37.096Z,5.20
2023-06-26T08:20:12.058Z,6.40
2023-06-26T08:22:45.810Z,5.30
2023-06-26T08:25:18.229Z,5.20
2023-06-26T08:27:53.959Z,15.20
2023-06-26T08:30:29.334Z,5.40
2023-06-26T08:33:02.081Z,5.10
2023-06-26T08:35:34.425Z,5.60
2023-06-26T08:38:06.549Z,4.60
2023-06-26T08:40:40.021Z,5.70
2023-06-26T08:43:12.482Z,6.10
2023-06-26T08:45:44.816Z,6.50
2023-06-26T08:48:17.269Z,4.90
2023-06-26T08:50:51.591Z,5.20
2023-06-26T08:53:31.581Z,4.20
2023-06-26T08:56:05.335Z,4.90
2023-06-26T08:58:40.050Z,6.50
2023-06-26T09:01:15.194Z,4.90
2023-06-26T09:03:47.696Z,5.50
2023-06-26T09:06:20.360Z,4.60
2023-06-26T09:08:52.682Z,4.70
2023-06-26T09:11:26.800Z,4.90
2023-06-26T09:13:59.758Z,4.60
2023-06-26T09:16:31.992Z,4.80
2023-06-26T09:19:04.234Z,5.40
2023-06-26T09:21:36.405Z,4.70
2023-06-26T09:24:11.756Z,4.30
2023-06-26T09:26:44.618Z,4.50
2023-06-26T09:29:17.853Z,4.30
2023-06-26T09:31:50.236Z,4.20
2023-06-26T09:34:23.147Z,4.80
2023-06-26T09:36:57.859Z,4.60
2023-06-26T09:39:32.524Z,4.40
2023-06-26T09:42:07.482Z,4.70
2023-06-26T09:44:45.631Z,4.20
2023-06-26T09:47:23.331Z,5.00
2023-06-26T09:49:56.326Z,4.20
2023-06-26T09:52:30.908Z,5.40
2023-06-26T09:55:16.765Z,5.00
2023-06-26T09:57:50.256Z,4.60
2023-06-26T10:00:23.392Z,5.00
2023-06-26T10:02:56.249Z,4.80
2023-06-26T10:05:29.247Z,4.40
2023-06-26T10:08:04.737Z,4.50
2023-06-26T10:10:39.618Z,4.50
2023-06-26T10:13:23.003Z,4.60
2023-06-26T10:15:56.232Z,4.20
2023-06-26T10:18:29.955Z,4.20
2023-06-26T10:21:05.863Z,4.40
2023-06-26T10:23:39.303Z,4.70
2023-06-26T10:26:13.848Z,5.00
2023-06-26T10:28:49.943Z,4.50
2023-06-26T10:31:25.475Z,4.80
2023-06-26T10:33:58.693Z,4.90
2023-06-26T10:36:34.128Z,4.60
2023-06-26T10:39:09.004Z,4.80
2023-06-26T10:41:53.103Z,4.80
2023-06-26T10:44:45.136Z,5.20
2023-06-26T10:47:33.684Z,6.00
2023-06-26T10:50:25.381Z,4.30
2023-06-26T10:53:26.627Z,4.90
2023-06-26T10:56:06.415Z,4.40
2023-06-26T10:58:49.452Z,4.80
2023-06-26T11:01:25.281Z,4.60
2023-06-26T11:04:09.489Z,4.60
2023-06-26T11:06:43.061Z,4.80
2023-06-26T11:09:20.643Z,4.50
2023-06-26T11:12:06.394Z,4.40
2023-06-26T11:14:39.565Z,4.20
2023-06-26T11:17:16.100Z,4.70
2023-06-26T11:19:49.550Z,4.20
2023-06-26T11:22:22.837Z,4.60
2023-06-26T11:24:57.306Z,4.40
2023-06-26T11:27:35.475Z,4.70
2023-06-26T11:30:09.596Z,3.90
2023-06-26T11:32:42.608Z,4.60
2023-06-26T11:35:14.892Z,4.00
2023-06-26T11:37:47.105Z,4.30
2023-06-26T11:40:28.038Z,4.30
2023-06-26T11:43:03.006Z,3.90
2023-06-26T11:45:36.929Z,4.20
2023-06-26T11:48:09.885Z,4.40
2023-06-26T11:50:44.150Z,4.50
2023-06-26T11:53:19.306Z,4.40
2023-06-26T11:55:52.061Z,4.50
2023-06-26T11:58:24.223Z,4.30
2023-06-26T12:00:57.124Z,4.00
2023-06-26T12:03:29.522Z,4.10
2023-06-26T12:06:04.793Z,3.90
2023-06-26T12:08:37.399Z,4.60
2023-06-26T12:11:09.895Z,4.30
2023-06-26T12:13:46.155Z,4.40
2023-06-26T12:16:20.879Z,4.30
2023-06-26T12:18:53.446Z,4.00
2023-06-26T12:21:53.746Z,3.80
2023-06-26T12:24:27.149Z,4.00
2023-06-26T12:26:59.495Z,4.40
2023-06-26T12:29:36.541Z,3.90
2023-06-26T12:32:13.083Z,4.10
2023-06-26T12:34:49.294Z,4.00
2023-06-26T12:37:21.594Z,4.00
2023-06-26T12:39:55.140Z,3.90
2023-06-26T12:42:28.897Z,4.30
2023-06-26T12:45:01.273Z,4.20
2023-06-26T12:47:34.942Z,5.20
2023-06-26T12:50:10.321Z,3.90
2023-06-26T12:52:42.486Z,4.10
2023-06-26T12:55:14.825Z,4.00
2023-06-26T12:57:47.439Z,4.10
2023-06-26T13:00:21.409Z,4.10
2023-06-26T13:02:53.686Z,3.80
2023-06-26T13:05:26.830Z,4.10
2023-06-26T13:07:59.955Z,4.50
2023-06-26T13:10:32.125Z,3.90
2023-06-26T13:13:04.697Z,4.50
2023-06-26T13:15:36.874Z,3.60
2023-06-26T13:18:09.126Z,3.90
2023-06-26T13:20:41.602Z,3.90
2023-06-26T13:23:14.084Z,4.10
2023-06-26T13:25:46.168Z,4.10
2023-06-26T13:28:18.476Z,3.60
2023-06-26T13:30:51.288Z,3.70
2023-06-26T13:33:26.794Z,3.90
2023-06-26T13:35:59.090Z,4.10
2023-06-26T13:38:31.201Z,3.70
2023-06-26T13:41:04.081Z,4.20
2023-06-26T13:43:36.318Z,4.00
2023-06-26T13:46:09.242Z,4.20
2023-06-26T13:48:41.483Z,3.80
2023-06-26T13:51:13.998Z,3.90
2023-06-26T13:53:46.357Z,3.30
2023-06-26T13:56:18.604Z,3.90
2023-06-26T13:58:51.156Z,4.10
2023-06-26T14:01:24.682Z,3.80
2023-06-26T14:03:56.928Z,3.60
2023-06-26T14:06:29.113Z,3.60
2023-06-26T14:09:01.795Z,3.50
2023-06-26T14:11:35.130Z,4.00
2023-06-26T14:14:07.410Z,3.60
2023-06-26T14:16:41.618Z,3.60
2023-06-26T14:19:15.785Z,3.50
2023-06-26T14:21:48.006Z,3.80
2023-06-26T14:24:20.426Z,3.60
2023-06-26T14:26:52.595Z,3.40
2023-06-26T14:29:24.671Z,3.30
2023-06-26T14:31:56.955Z,3.60
2023-06-26T14:34:29.235Z,3.50
2023-06-26T14:37:02.150Z,3.30
2023-06-26T14:39:34.238Z,3.50
2023-06-26T14:42:07.918Z,3.80
2023-06-26T14:44:40.728Z,4.10
2023-06-26T14:47:13.322Z,3.40
2023-06-26T14:49:45.692Z,4.00
2023-06-26T14:52:17.909Z,3.60
2023-06-26T14:54:50.024Z,3.60
2023-06-26T14:57:22.227Z,3.50
2023-06-26T14:59:54.356Z,3.20
2023-06-26T15:02:26.546Z,3.90
2023-06-26T15:04:58.871Z,3.70
2023-06-26T15:07:31.254Z,3.50
2023-06-26T15:10:03.579Z,3.70
2023-06-26T15:12:35.709Z,3.70
2023-06-26T15:15:09.671Z,3.60
2023-06-26T15:17:42.021Z,3.40
2023-06-26T15:20:14.568Z,3.40
2023-06-26T15:22:46.768Z,4.30
2023-06-26T15:25:19.012Z,3.50
2023-06-26T15:27:51.508Z,3.80
2023-06-26T15:30:23.695Z,4.00
2023-06-26T15:32:55.976Z,3.60
2023-06-26T15:35:29.630Z,3.50
2023-06-26T15:38:01.833Z,3.50
2023-06-26T15:40:34.167Z,3.70
2023-06-26T15:43:06.305Z,4.00
2023-06-26T15:45:38.482Z,3.30
2023-06-26T15:48:11.347Z,3.40
2023-06-26T15:50:43.581Z,3.70
2023-06-26T15:53:19.975Z,3.80
2023-06-26T15:55:52.120Z,4.10
2023-06-26T15:58:24.210Z,4.20
2023-06-26T16:00:56.608Z,4.20
2023-06-26T16:03:28.775Z,3.70
2023-06-26T16:06:00.915Z,3.70
2023-06-26T16:08:33.002Z,3.70
2023-06-26T16:11:06.577Z,4.30
2023-06-26T16:13:38.789Z,3.80
2023-06-26T16:16:12.624Z,3.80
2023-06-26T16:18:44.788Z,3.90
2023-06-26T16:21:17.392Z,4.00
2023-06-26T16:23:49.478Z,3.70
2023-06-26T16:26:21.562Z,4.20
2023-06-26T16:28:54.043Z,3.90
2023-06-26T16:31:26.837Z,4.20
2023-06-26T16:33:59.373Z,4.10
2023-06-26T16:36:31.581Z,4.00
2023-06-26T16:39:04.057Z,3.50
2023-06-26T16:41:36.147Z,4.10
2023-06-26T16:44:08.404Z,4.20
2023-06-26T16:46:40.623Z,4.30
2023-06-26T16:49:12.779Z,4.50
2023-06-26T16:51:45.109Z,4.10
2023-06-26T16:54:17.215Z,4.00
2023-06-26T16:56:49.368Z,4.80
2023-06-26T16:59:21.672Z,4.20
2023-06-26T17:01:55.182Z,4.30
2023-06-26T17:04:27.532Z,3.90
2023-06-26T17:07:00.681Z,3.90
2023-06-26T17:09:32.940Z,4.50
2023-06-26T17:12:05.527Z,4.10
2023-06-26T17:14:37.651Z,4.70
2023-06-26T17:17:09.906Z,4.10
2023-06-26T17:19:42.037Z,4.30
2023-06-26T17:22:14.321Z,4.40
2023-06-26T17:24:46.425Z,4.60
2023-06-26T17:27:22.116Z,4.60
2023-06-26T17:29:54.165Z,4.70
2023-06-26T17:32:26.576Z,4.20
2023-06-26T17:34:58.780Z,4.20
2023-06-26T17:37:30.890Z,4.40
2023-06-26T17:40:05.379Z,4.20
2023-06-26T17:42:43.520Z,4.10
2023-06-26T17:45:16.647Z,4.10
2023-06-26T17:47:48.943Z,4.30
2023-06-26T17:50:21.394Z,4.80
2023-06-26T17:52:53.690Z,4.40
2023-06-26T17:55:26.013Z,4.60
2023-06-26T17:57:58.104Z,4.20
2023-06-26T18:00:30.951Z,4.40
2023-06-26T18:03:03.799Z,4.40
2023-06-26T18:05:36.322Z,4.30
2023-06-26T18:08:08.606Z,4.40
2023-06-26T18:10:40.939Z,4.20
2023-06-26T18:13:13.349Z,4.60
2023-06-26T18:15:45.697Z,4.80
2023-06-26T18:18:18.056Z,4.60
2023-06-26T18:20:50.318Z,4.50
2023-06-26T18:23:22.456Z,4.80
2023-06-26T18:25:54.540Z,4.70
2023-06-26T18:28:28.312Z,4.50
2023-06-26T18:31:00.746Z,4.50
2023-06-26T18:33:32.942Z,4.50
2023-06-26T18:36:07.270Z,5.20
2023-06-26T18:38:39.555Z,5.20
2023-06-26T18:41:11.816Z,5.60
2023-06-26T18:43:46.731Z,5.90
2023-06-26T18:46:19.019Z,5.70
2023-06-26T18:49:01.282Z,5.10
2023-06-26T18:51:34.018Z,5.60
2023-06-26T18:54:06.503Z,5.40
2023-06-26T18:56:38.688Z,5.10
2023-06-26T18:59:11.019Z,5.40
2023-06-26T19:01:43.471Z,6.00
2023-06-26T19:04:16.296Z,5.60
2023-06-26T19:06:48.997Z,5.60
2023-06-26T19:09:21.689Z,5.50
2023-06-26T19:11:53.870Z,6.10
2023-06-26T19:14:26.272Z,6.00
2023-06-26T19:16:58.485Z,6.30
2023-06-26T19:19:30.675Z,5.80
2023-06-26T19:22:02.850Z,6.30
2023-06-26T19:24:35.081Z,5.80
2023-06-26T19:27:07.541Z,5.40
2023-06-26T19:29:39.762Z,5.50
2023-06-26T19:32:13.668Z,5.00
2023-06-26T19:34:46.006Z,5.60
2023-06-26T19:37:18.300Z,6.40
2023-06-26T19:39:50.473Z,5.90
2023-06-26T19:42:22.654Z,5.80
2023-06-26T19:44:54.868Z,5.80
2023-06-26T19:47:27.129Z,6.10
2023-06-26T19:49:59.322Z,6.20
2023-06-26T19:52:31.428Z,5.60
2023-06-26T19:55:04.609Z,6.30
2023-06-26T19:57:36.949Z,6.30
2023-06-26T20:00:11.616Z,6.50
2023-06-26T20:02:43.927Z,6.20
2023-06-26T20:05:16.255Z,6.70
2023-06-26T20:07:48.529Z,6.20
2023-06-26T20:10:20.895Z,6.00
2023-06-26T20:12:53.081Z,6.40
2023-06-26T20:15:25.201Z,6.10
2023-06-26T20:17:57.666Z,5.40
2023-06-26T20:20:29.786Z,6.20
2023-06-26T20:23:02.783Z,4.90
2023-06-26T20:25:35.239Z,5.00
2023-06-26T20:28:07.632Z,5.30
2023-06-26T20:30:39.834Z,5.40
2023-06-26T20:33:12.153Z,5.20
2023-06-26T20:35:44.394Z,6.00
2023-06-26T20:38:16.483Z,6.20
2023-06-26T20:40:49.540Z,5.80
2023-06-26T20:43:22.526Z,6.00
2023-06-26T20:45:55.698Z,6.10
2023-06-26T20:48:29.118Z,6.00
2023-06-26T20:51:02.169Z,6.10
2023-06-26T20:53:35.135Z,6.60
2023-06-26T20:56:08.588Z,5.60
2023-06-26T20:58:40.702Z,6.10
2023-06-26T21:01:12.996Z,6.20
2023-06-26T21:03:45.223Z,6.10
2023-06-26T21:06:17.364Z,6.70
2023-06-26T21:08:49.596Z,6.40
2023-06-26T21:11:22.017Z,6.90
2023-06-26T21:13:54.191Z,5.60
2023-06-26T21:16:26.368Z,6.60
2023-06-26T21:18:58.417Z,6.50
2023-06-26T21:21:30.658Z,5.80
2023-06-26T21:24:03.731Z,6.10
2023-06-26T21:26:35.853Z,5.80
2023-06-26T21:29:08.083Z,5.00
2023-06-26T21:31:40.148Z,6.10
2023-06-26T21:34:12.557Z,6.10
2023-06-26T21:36:44.697Z,6.10
2023-06-26T21:39:16.725Z,5.00
2023-06-26T21:41:48.772Z,5.20
2023-06-26T21:44:20.930Z,5.00
2023-06-26T21:46:53.160Z,4.80
2023-06-26T21:49:25.363Z,5.70
2023-06-26T21:51:57.456Z,5.40
2023-06-26T21:54:29.502Z,5.30
2023-06-26T21:57:01.576Z,4.50
2023-06-26T21:59:33.771Z,4.80
2023-06-26T22:02:06.120Z,4.70
2023-06-26T22:04:38.232Z,4.80
2023-06-26T22:07:10.570Z,4.10
2023-06-26T22:09:43.023Z,4.40
2023-06-26T22:12:15.308Z,4.10
2023-06-26T22:14:47.522Z,5.20
2023-06-26T22:17:19.729Z,4.70
2023-06-26T22:19:51.897Z,4.70
2023-06-26T22:22:24.124Z,4.10
2023-06-26T22:24:56.889Z,3.90
2023-06-26T22:27:29.021Z,3.80
2023-06-26T22:30:01.500Z,4.00
2023-06-26T22:32:33.685Z,4.10
2023-06-26T22:35:07.114Z,3.70
2023-06-26T22:37:39.291Z,4.20
2023-06-26T22:40:13.442Z,3.30
2023-06-26T22:42:45.757Z,4.10
2023-06-26T22:45:18.010Z,3.50
2023-06-26T22:47:50.352Z,3.90
2023-06-26T22:50:22.478Z,4.70
2023-06-26T22:52:55.118Z,4.40
2023-06-26T22:55:27.230Z,4.60
2023-06-26T22:57:59.272Z,5.10
2023-06-26T23:00:31.294Z,4.90
2023-06-26T23:03:03.359Z,4.70
2023-06-26T23:05:38.380Z,5.10
2023-06-26T23:08:10.906Z,5.50
2023-06-26T23:10:43.476Z,4.60
2023-06-26T23:13:15.828Z,5.10
2023-06-26T23:15:48.215Z,4.80
2023-06-26T23:18:20.416Z,4.90
2023-06-26T23:20:53.072Z,5.30
2023-06-26T23:23:26.110Z,4.90
2023-06-26T23:26:01.382Z,5.60
2023-06-26T23:28:33.663Z,5.50
2023-06-26T23:31:06.793Z,5.50
2023-06-26T23:33:41.846Z,5.50
2023-06-26T23:36:14.061Z,5.50
2023-06-26T23:38:46.439Z,5.60
2023-06-26T23:41:18.810Z,5.70
2023-06-26T23:43:51.006Z,6.70
2023-06-26T23:46:23.186Z,6.20
2023-06-26T23:48:55.661Z,6.30
2023-06-26T23:51:27.845Z,6.80
2023-06-26T23:54:00.053Z,6.20
2023-06-26T23:56:32.872Z,5.40
2023-06-26T23:59:05.565Z,5.50
